Time;durP1;ratioP1;P1;durP2;ratioP2;P2;SDS_P1;SDS_P2;PMS_P1;PMS_P2;Temp;Humidity;BMP_temperature;BMP_pressure;BME280_temperature;BME280_humidity;BME280_pressure;Samples;Min_cycle;Max_cycle;Signal;HPM_P1;HPM_P2
2023/10/18 00:01:24;;;;;;;;;;;19.70;71.40;;;;;;5023917;28;1366;-66
2023/10/18 00:03:52;;;;;;;;;;;19.70;71.40;;;;;;5022066;28;1460;-66
2023/10/18 00:06:21;;;;;;;;;;;19.70;71.40;;;;;;5028257;28;1449;-66
2023/10/18 00:08:46;;;;;;;;;;;19.70;71.40;;;;;;5020335;28;1528;-66
2023/10/18 00:11:12;;;;;;;;;;;19.70;71.50;;;;;;5024026;28;2071;-66
2023/10/18 00:13:38;;;;;;;;;;;19.70;71.40;;;;;;5018897;28;1686;-66
2023/10/18 00:16:05;;;;;;;;;;;19.70;71.50;;;;;;5022240;28;1271;-66
2023/10/18 00:18:32;;;;;;;;;;;19.70;71.50;;;;;;5020226;28;1433;-66
2023/10/18 00:20:59;;;;;;;;;;;19.70;71.60;;;;;;5023415;28;1421;-66
2023/10/18 00:23:24;;;;;;;;;;;19.70;71.50;;;;;;5021391;28;1346;-67
2023/10/18 00:25:50;;;;;;;;;;;19.70;71.50;;;;;;5020716;28;1315;-66
2023/10/18 00:28:15;;;;;;;;;;;19.70;71.40;;;;;;5024699;28;1300;-66
2023/10/18 00:30:41;;;;;;;;;;;19.70;71.40;;;;;;5019474;28;1914;-66
2023/10/18 00:33:06;;;;;;;;;;;19.70;71.40;;;;;;5021944;28;1396;-66
2023/10/18 00:35:32;;;;;;;;;;;19.70;71.40;;;;;;5022272;28;1236;-66
2023/10/18 00:37:58;;;;;;;;;;;19.70;71.40;;;;;;5022667;28;1352;-66
2023/10/18 00:43:19;;;;;;;;;;;19.70;71.40;;;;;;5019637;28;1318;-66
2023/10/18 00:45:47;;;;;;;;;;;19.70;71.40;;;;;;5023930;28;1307;-66
2023/10/18 00:48:13;;;;;;;;;;;19.70;71.50;;;;;;5021059;28;1759;-66
2023/10/18 00:50:42;;;;;;;;;;;19.70;71.40;;;;;;5021205;28;1910;-66
2023/10/18 00:53:08;;;;;;;;;;;19.70;71.40;;;;;;5019150;28;1283;-66
2023/10/18 00:55:34;;;;;;;;;;;19.70;71.40;;;;;;5020249;28;1522;-66
2023/10/18 00:58:00;;;;;;;;;;;19.70;71.50;;;;;;5021685;28;1466;-66
2023/10/18 01:00:26;;;;;;;;;;;19.70;71.50;;;;;;5019400;28;1399;-66
2023/10/18 01:02:53;;;;;;;;;;;19.70;71.40;;;;;;5018605;28;1362;-66
2023/10/18 01:05:19;;;;;;;;;;;19.70;71.50;;;;;;5028834;28;1363;-66
2023/10/18 01:07:47;;;;;;;;;;;19.70;71.40;;;;;;5021141;28;1487;-66
2023/10/18 01:10:12;;;;;;;;;;;19.70;71.40;;;;;;5036383;28;1902;-66
2023/10/18 01:12:38;;;;;;;;;;;19.70;71.40;;;;;;5023176;28;1258;-66
2023/10/18 01:15:07;;;;;;;;;;;19.70;71.30;;;;;;5020267;28;1316;-66
2023/10/18 01:17:34;;;;;;;;;;;19.70;71.40;;;;;;5008115;28;1312;-66
2023/10/18 01:20:12;;;;;;;;;;;19.70;71.40;;;;;;5024727;28;1276;-66
2023/10/18 01:22:37;;;;;;;;;;;19.70;71.50;;;;;;5022148;28;1413;-66
2023/10/18 01:25:03;;;;;;;;;;;19.70;71.40;;;;;;5021247;28;1608;-66
2023/10/18 01:27:28;;;;;;;;;;;19.70;71.40;;;;;;5024766;28;1470;-66
2023/10/18 01:29:55;;;;;;;;;;;19.70;71.40;;;;;;5022625;28;1272;-66
2023/10/18 01:32:21;;;;;;;;;;;19.70;71.40;;;;;;5020891;28;1902;-66
2023/10/18 01:34:47;;;;;;;;;;;19.70;71.50;;;;;;5002182;28;1387;-66
2023/10/18 01:37:13;;;;;;;;;;;19.70;71.40;;;;;;5016245;28;1471;-66
2023/10/18 01:39:39;;;;;;;;;;;19.70;71.40;;;;;;5021345;28;1364;-66
2023/10/18 01:42:06;;;;;;;;;;;19.70;71.40;;;;;;5019638;28;1587;-66
2023/10/18 01:44:33;;;;;;;;;;;19.70;71.40;;;;;;5010450;28;1616;-66
2023/10/18 01:47:05;;;;;;;;;;;19.70;71.30;;;;;;5018307;28;1436;-66
2023/10/18 01:49:31;;;;;;;;;;;19.70;71.40;;;;;;5018153;28;1391;-66
2023/10/18 01:51:57;;;;;;;;;;;19.70;71.40;;;;;;5018464;28;1963;-66
2023/10/18 01:54:25;;;;;;;;;;;19.70;71.40;;;;;;5021016;28;1573;-66
2023/10/18 01:56:52;;;;;;;;;;;19.70;71.40;;;;;;5020607;28;1588;-66
2023/10/18 01:59:18;;;;;;;;;;;19.70;71.40;;;;;;5023181;28;1331;-66
2023/10/18 02:01:51;;;;;;;;;;;19.70;71.40;;;;;;5020496;28;1385;-66
2023/10/18 02:04:26;;;;;;;;;;;19.70;71.50;;;;;;5018330;28;1326;-66
2023/10/18 02:06:59;;;;;;;;;;;19.70;71.40;;;;;;5021724;28;1743;-66
2023/10/18 02:09:35;;;;;;;;;;;19.70;71.50;;;;;;5022409;28;1342;-66
2023/10/18 02:12:05;;;;;;;;;;;19.70;71.40;;;;;;5048382;22;1954;-68
2023/10/18 02:14:33;;;;;;;;;;;19.70;71.40;;;;;;5029474;28;1260;-68
2023/10/18 02:17:05;;;;;;;;;;;19.70;71.40;;;;;;5033800;28;1128;-67
2023/10/18 02:19:31;;;;;;;;;;;19.70;71.40;;;;;;5028936;28;1376;-68
2023/10/18 02:21:59;;;;;;;;;;;19.70;71.40;;;;;;5033449;28;1576;-68
2023/10/18 02:24:25;;;;;;;;;;;19.70;71.40;;;;;;5030019;28;1470;-66
2023/10/18 02:26:54;;;;;;;;;;;19.70;71.40;;;;;;5029549;28;1137;-68
2023/10/18 02:29:22;;;;;;;;;;;19.70;71.30;;;;;;5032479;28;1162;-68
2023/10/18 02:31:49;;;;;;;;;;;19.70;71.30;;;;;;5028730;28;1922;-68
2023/10/18 02:34:15;;;;;;;;;;;19.70;71.40;;;;;;5027134;28;1532;-67
2023/10/18 02:36:47;;;;;;;;;;;19.70;71.40;;;;;;5030376;28;1510;-67
2023/10/18 02:39:13;;;;;;;;;;;19.70;71.30;;;;;;5031589;28;1679;-68
2023/10/18 02:41:39;;;;;;;;;;;19.70;71.30;;;;;;5032402;28;1447;-68
2023/10/18 02:44:11;;;;;;;;;;;19.70;71.40;;;;;;5029879;28;1342;-68
2023/10/18 02:46:36;;;;;;;;;;;19.70;71.30;;;;;;5031257;28;1126;-68
2023/10/18 02:49:02;;;;;;;;;;;19.70;71.30;;;;;;5026966;28;1527;-68
2023/10/18 02:51:28;;;;;;;;;;;19.70;71.30;;;;;;5028122;28;1955;-68
2023/10/18 02:53:54;;;;;;;;;;;19.70;71.40;;;;;;5028866;28;1344;-68
2023/10/18 02:56:37;;;;;;;;;;;19.70;71.30;;;;;;5028010;28;1256;-68
2023/10/18 02:59:09;;;;;;;;;;;19.70;71.30;;;;;;5029365;28;1361;-68
2023/10/18 03:01:37;;;;;;;;;;;19.70;71.30;;;;;;5027759;28;1410;-68
2023/10/18 03:04:08;;;;;;;;;;;19.70;71.30;;;;;;5029249;28;1231;-68
2023/10/18 03:06:34;;;;;;;;;;;19.70;71.30;;;;;;5031106;28;1230;-68
2023/10/18 03:09:00;;;;;;;;;;;19.70;71.20;;;;;;5030604;28;1219;-68
2023/10/18 03:11:26;;;;;;;;;;;19.70;71.30;;;;;;5028401;28;2020;-67
2023/10/18 03:13:52;;;;;;;;;;;19.70;71.30;;;;;;5030737;28;1469;-68
2023/10/18 03:16:27;;;;;;;;;;;19.70;71.20;;;;;;5031940;28;1515;-67
2023/10/18 03:18:53;;;;;;;;;;;19.70;71.20;;;;;;5029567;28;1546;-68
2023/10/18 03:21:22;;;;;;;;;;;19.70;71.30;;;;;;5033568;28;1449;-68
2023/10/18 03:23:50;;;;;;;;;;;19.70;71.20;;;;;;5029173;28;1269;-68
2023/10/18 03:26:21;;;;;;;;;;;19.70;71.20;;;;;;5029456;28;1305;-67
2023/10/18 03:28:47;;;;;;;;;;;19.70;71.20;;;;;;5031373;28;1232;-68
2023/10/18 03:31:21;;;;;;;;;;;19.70;71.50;;;;;;5026573;28;1973;-67
2023/10/18 03:33:59;;;;;;;;;;;19.70;71.20;;;;;;5027856;28;1331;-68
2023/10/18 03:36:25;;;;;;;;;;;19.70;71.20;;;;;;5024032;28;1094;-68
2023/10/18 03:38:54;;;;;;;;;;;19.70;71.20;;;;;;5028968;28;1406;-68
2023/10/18 03:41:25;;;;;;;;;;;19.70;71.20;;;;;;5027057;28;1373;-68
2023/10/18 03:43:51;;;;;;;;;;;19.70;71.20;;;;;;5025280;28;1224;-66
2023/10/18 03:46:38;;;;;;;;;;;19.70;71.10;;;;;;5026369;28;1530;-68
2023/10/18 03:49:10;;;;;;;;;;;19.70;71.20;;;;;;5028115;28;1293;-67
2023/10/18 03:51:39;;;;;;;;;;;19.70;71.10;;;;;;5026290;28;1910;-68
2023/10/18 03:54:05;;;;;;;;;;;19.70;71.10;;;;;;5023054;28;1201;-68
2023/10/18 03:56:36;;;;;;;;;;;19.70;71.10;;;;;;5024193;28;1269;-68
2023/10/18 03:59:25;;;;;;;;;;;19.70;71.20;;;;;;5025204;28;1260;-67
2023/10/18 04:02:04;;;;;;;;;;;19.70;71.20;;;;;;5023850;28;1386;-68
2023/10/18 04:04:37;;;;;;;;;;;19.70;71.10;;;;;;5028302;28;1330;-67
2023/10/18 04:07:12;;;;;;;;;;;19.70;71.20;;;;;;5024787;28;1450;-68
2023/10/18 04:09:40;;;;;;;;;;;19.70;71.00;;;;;;5026638;28;1808;-68
2023/10/18 04:12:07;;;;;;;;;;;19.70;71.20;;;;;;5026006;28;1973;-68
2023/10/18 04:14:33;;;;;;;;;;;19.70;71.10;;;;;;5027408;28;1486;-68
2023/10/18 04:16:59;;;;;;;;;;;19.70;71.10;;;;;;5025589;28;1394;-68
2023/10/18 04:19:24;;;;;;;;;;;19.70;71.10;;;;;;5026659;28;1249;-67
2023/10/18 04:21:53;;;;;;;;;;;19.70;71.10;;;;;;5023385;28;1640;-67
2023/10/18 04:24:25;;;;;;;;;;;19.70;71.10;;;;;;5027031;28;1376;-68
2023/10/18 04:26:52;;;;;;;;;;;19.70;71.10;;;;;;5027235;28;1455;-68
2023/10/18 04:29:26;;;;;;;;;;;19.70;71.10;;;;;;5027484;28;1246;-68
2023/10/18 04:31:56;;;;;;;;;;;19.70;71.10;;;;;;5027947;28;1918;-67
2023/10/18 04:34:22;;;;;;;;;;;19.70;71.00;;;;;;5021399;28;1345;-68
2023/10/18 04:36:47;;;;;;;;;;;19.70;71.00;;;;;;5022017;28;1450;-68
2023/10/18 04:39:18;;;;;;;;;;;19.70;71.10;;;;;;5021772;28;1327;-68
2023/10/18 04:41:44;;;;;;;;;;;19.70;71.10;;;;;;5023961;28;1320;-67
2023/10/18 04:44:19;;;;;;;;;;;19.60;71.00;;;;;;5024342;28;1354;-68
2023/10/18 04:46:47;;;;;;;;;;;19.70;71.00;;;;;;5025579;28;1423;-68
2023/10/18 04:49:16;;;;;;;;;;;19.70;71.00;;;;;;5025427;28;1602;-68
2023/10/18 04:51:49;;;;;;;;;;;19.70;71.80;;;;;;5025512;28;1898;-68
2023/10/18 04:54:35;;;;;;;;;;;19.70;71.10;;;;;;5024419;28;1765;-67
2023/10/18 04:57:00;;;;;;;;;;;19.70;71.00;;;;;;5027323;28;1415;-67
2023/10/18 05:02:16;;;;;;;;;;;19.70;71.00;;;;;;5026194;28;1431;-68
2023/10/18 05:04:41;;;;;;;;;;;19.70;71.00;;;;;;5028823;28;1405;-68
2023/10/18 05:09:41;;;;;;;;;;;19.70;71.00;;;;;;5023460;28;1383;-68
2023/10/18 05:17:26;;;;;;;;;;;19.70;71.00;;;;;;5025004;28;1277;-68
2023/10/18 05:19:55;;;;;;;;;;;19.70;70.90;;;;;;5025378;28;1451;-68
2023/10/18 05:22:23;;;;;;;;;;;19.70;71.00;;;;;;5021648;28;1542;-67
2023/10/18 05:25:29;;;;;;;;;;;19.70;71.00;;;;;;5022381;28;1429;-68
2023/10/18 05:27:50;;;;;;;;;;;19.70;71.00;;;;;;5022061;28;1140;-68
2023/10/18 05:30:16;;;;;;;;;;;19.70;71.00;;;;;;5024275;28;1903;-68
2023/10/18 05:33:02;;;;;;;;;;;19.70;70.90;;;;;;5024513;28;1374;-67
2023/10/18 05:35:34;;;;;;;;;;;19.70;70.90;;;;;;5023906;28;1326;-68
2023/10/18 05:37:59;;;;;;;;;;;19.70;70.90;;;;;;5024828;28;1260;-68
2023/10/18 05:43:13;;;;;;;;;;;19.70;70.90;;;;;;5023348;28;1322;-67
2023/10/18 05:45:40;;;;;;;;;;;19.70;70.80;;;;;;5024734;28;1275;-68
2023/10/18 05:48:31;;;;;;;;;;;19.70;70.80;;;;;;5025426;28;1310;-69
2023/10/18 05:51:25;;;;;;;;;;;19.70;70.70;;;;;;5025084;28;1898;-67
2023/10/18 05:53:46;;;;;;;;;;;19.70;67.50;;;;;;5025757;28;1249;-68
2023/10/18 05:56:12;;;;;;;;;;;19.70;60.60;;;;;;5023761;28;1443;-68
2023/10/18 05:58:37;;;;;;;;;;;19.70;57.50;;;;;;5027219;28;1638;-69
2023/10/18 06:01:03;;;;;;;;;;;19.70;54.90;;;;;;5022073;28;2122;-66
2023/10/18 06:03:41;;;;;;;;;;;19.70;55.00;;;;;;5023319;28;1857;-66
2023/10/18 06:06:07;;;;;;;;;;;19.70;56.20;;;;;;5021801;28;1437;-66
2023/10/18 06:08:32;;;;;;;;;;;19.70;56.80;;;;;;5024772;28;1322;-67
2023/10/18 06:11:06;;;;;;;;;;;19.70;57.30;;;;;;5024588;28;1894;-66
2023/10/18 06:13:40;;;;;;;;;;;19.70;58.10;;;;;;5022211;28;959;-67
2023/10/18 06:16:18;;;;;;;;;;;19.70;58.60;;;;;;5020993;28;1240;-66
2023/10/18 06:18:45;;;;;;;;;;;19.70;58.80;;;;;;5027844;28;1365;-67
2023/10/18 06:21:12;;;;;;;;;;;19.80;59.20;;;;;;5025568;28;1295;-66
2023/10/18 06:23:38;;;;;;;;;;;19.80;59.80;;;;;;5021595;28;985;-65
2023/10/18 06:28:53;;;;;;;;;;;19.90;60.90;;;;;;5022833;28;1343;-66
2023/10/18 06:31:19;;;;;;;;;;;20.00;61.00;;;;;;5026242;28;1898;-65
2023/10/18 06:33:44;;;;;;;;;;;20.10;61.30;;;;;;5026541;28;1318;-67
2023/10/18 06:36:13;;;;;;;;;;;20.30;61.70;;;;;;5022294;28;1233;-67
2023/10/18 06:38:39;;;;;;;;;;;20.40;61.90;;;;;;5023404;28;1268;-68
2023/10/18 06:41:10;;;;;;;;;;;20.50;61.80;;;;;;5026026;28;1447;-67
2023/10/18 06:43:36;;;;;;;;;;;20.60;61.40;;;;;;5024143;28;1473;-66
2023/10/18 06:46:04;;;;;;;;;;;20.70;61.30;;;;;;5024101;28;1331;-67
2023/10/18 06:48:30;;;;;;;;;;;20.80;61.20;;;;;;5024849;28;1268;-66
2023/10/18 06:50:57;;;;;;;;;;;20.90;61.20;;;;;;5022419;28;1973;-67
2023/10/18 06:53:22;;;;;;;;;;;21.00;61.20;;;;;;5024414;28;1521;-67
2023/10/18 06:58:46;;;;;;;;;;;21.20;61.00;;;;;;5006615;28;1374;-67
2023/10/18 07:01:19;;;;;;;;;;;21.30;61.00;;;;;;5022850;28;1457;-66
2023/10/18 07:03:46;;;;;;;;;;;21.30;61.00;;;;;;5028641;28;1456;-66
2023/10/18 07:06:24;;;;;;;;;;;21.30;61.00;;;;;;5026013;28;1353;-66
2023/10/18 07:08:52;;;;;;;;;;;21.40;61.10;;;;;;5023246;28;1669;-66
2023/10/18 07:11:18;;;;;;;;;;;21.40;61.20;;;;;;5025651;28;1894;-67
2023/10/18 07:13:46;;;;;;;;;;;21.40;61.30;;;;;;5029034;28;1419;-66
2023/10/18 07:16:14;;;;;;;;;;;21.40;61.30;;;;;;5027573;28;1514;-66
2023/10/18 07:18:42;;;;;;;;;;;21.40;61.70;;;;;;5028325;28;1298;-66
2023/10/18 07:21:09;;;;;;;;;;;21.50;61.80;;;;;;5027146;28;1308;-66
2023/10/18 07:23:38;;;;;;;;;;;21.50;62.20;;;;;;5020248;28;1612;-66
2023/10/18 07:26:04;;;;;;;;;;;21.50;62.70;;;;;;5028258;28;1441;-66
2023/10/18 07:28:29;;;;;;;;;;;21.50;62.70;;;;;;5029150;28;1288;-66
2023/10/18 07:30:55;;;;;;;;;;;21.50;63.00;;;;;;5026643;28;1910;-66
2023/10/18 07:33:23;;;;;;;;;;;21.50;63.10;;;;;;5026580;28;1197;-67
2023/10/18 07:35:49;;;;;;;;;;;21.50;63.20;;;;;;5024342;28;1915;-67
2023/10/18 07:38:14;;;;;;;;;;;21.50;63.40;;;;;;5028403;28;1300;-66
2023/10/18 07:40:43;;;;;;;;;;;21.50;63.30;;;;;;5026434;28;1280;-67
2023/10/18 07:43:12;;;;;;;;;;;21.50;63.50;;;;;;5025727;28;1522;-67
2023/10/18 07:45:38;;;;;;;;;;;21.50;63.60;;;;;;5024159;28;1489;-67
2023/10/18 07:48:05;;;;;;;;;;;21.50;63.80;;;;;;5029963;28;1262;-67
2023/10/18 07:53:05;;;;;;;;;;;21.50;63.90;;;;;;5024422;28;1330;-67
2023/10/18 07:55:36;;;;;;;;;;;21.40;64.00;;;;;;5027027;28;1403;-67
2023/10/18 07:58:06;;;;;;;;;;;21.50;64.10;;;;;;5022893;28;1327;-66
2023/10/18 08:00:32;;;;;;;;;;;21.40;64.50;;;;;;5030094;28;1532;-67
2023/10/18 08:02:59;;;;;;;;;;;21.40;64.40;;;;;;5022902;28;1524;-67
2023/10/18 08:05:46;;;;;;;;;;;21.40;64.60;;;;;;5025871;28;1159;-67
2023/10/18 08:08:11;;;;;;;;;;;21.40;64.90;;;;;;5026521;28;1812;-66
2023/10/18 08:10:38;;;;;;;;;;;21.40;65.30;;;;;;5025230;28;1910;-67
2023/10/18 08:13:07;;;;;;;;;;;21.40;65.20;;;;;;5026747;28;1255;-66
2023/10/18 08:15:36;;;;;;;;;;;21.40;65.20;;;;;;5027663;28;1344;-67
2023/10/18 08:18:17;;;;;;;;;;;21.40;65.40;;;;;;5026200;28;1569;-66
2023/10/18 08:26:03;;;;;;;;;;;21.40;65.50;;;;;;5023614;28;1282;-66
2023/10/18 08:28:38;;;;;;;;;;;21.40;65.60;;;;;;5024716;28;1214;-67
2023/10/18 08:31:35;;;;;;;;;;;21.40;65.60;;;;;;5025693;28;1965;-67
2023/10/18 08:34:10;;;;;;;;;;;21.40;65.70;;;;;;5026313;28;1354;-67
2023/10/18 08:36:35;;;;;;;;;;;21.40;65.80;;;;;;5012201;28;1422;-67
2023/10/18 08:39:01;;;;;;;;;;;21.40;65.70;;;;;;5027190;28;1343;-67
2023/10/18 08:41:33;;;;;;;;;;;21.40;65.80;;;;;;5029237;28;1363;-67
2023/10/18 08:44:19;;;;;;;;;;;21.40;66.00;;;;;;5024949;28;1352;-67
2023/10/18 08:49:56;;;;;;;;;;;21.30;66.10;;;;;;5026186;28;1323;-66
2023/10/18 08:52:28;;;;;;;;;;;21.30;66.20;;;;;;5022164;28;1899;-66
2023/10/18 08:54:53;;;;;;;;;;;21.30;66.30;;;;;;5026391;28;1384;-67
2023/10/18 08:57:34;;;;;;;;;;;21.30;66.30;;;;;;5026966;28;1411;-67
2023/10/18 09:00:16;;;;;;;;;;;21.30;66.40;;;;;;5012093;28;1304;-67
2023/10/18 09:02:42;;;;;;;;;;;21.30;66.50;;;;;;5019854;28;1908;-67
2023/10/18 09:05:08;;;;;;;;;;;21.30;66.70;;;;;;5024728;28;1959;-67
2023/10/18 09:07:43;;;;;;;;;;;21.30;66.60;;;;;;5033462;28;1467;-67
2023/10/18 09:15:48;;;;;;;;;;;21.30;66.90;;;;;;5024549;28;1328;-67
2023/10/18 09:18:13;;;;;;;;;;;21.30;66.80;;;;;;5027792;28;1796;-67
2023/10/18 09:20:39;;;;;;;;;;;21.30;66.90;;;;;;5026998;28;1308;-67
2023/10/18 09:23:05;;;;;;;;;;;21.30;67.10;;;;;;5026771;28;2138;-67
2023/10/18 09:25:47;;;;;;;;;;;21.30;67.20;;;;;;5052064;22;2194;-71
2023/10/18 09:28:21;;;;;;;;;;;21.30;67.10;;;;;;5040861;28;1466;-71
2023/10/18 09:30:46;;;;;;;;;;;21.30;67.30;;;;;;5041619;28;1969;-71
2023/10/18 09:33:13;;;;;;;;;;;21.30;67.40;;;;;;5037895;28;1360;-70
2023/10/18 09:35:47;;;;;;;;;;;21.30;67.50;;;;;;5053535;28;1512;-71
2023/10/18 09:38:13;;;;;;;;;;;21.30;67.60;;;;;;5040424;28;1484;-71
2023/10/18 09:40:40;;;;;;;;;;;21.30;67.60;;;;;;5040962;28;1398;-71
2023/10/18 09:43:06;;;;;;;;;;;21.20;67.60;;;;;;5040053;28;1530;-71
2023/10/18 09:45:33;;;;;;;;;;;21.20;67.60;;;;;;5036491;28;1694;-72
2023/10/18 09:47:59;;;;;;;;;;;21.20;67.60;;;;;;5042404;28;1320;-70
2023/10/18 09:50:28;;;;;;;;;;;21.20;67.70;;;;;;5056523;28;1964;-71
2023/10/18 09:52:57;;;;;;;;;;;21.20;67.70;;;;;;5042313;28;1477;-72
2023/10/18 09:55:26;;;;;;;;;;;21.20;67.90;;;;;;5040707;28;1358;-72
2023/10/18 09:58:04;;;;;;;;;;;21.20;68.00;;;;;;5037688;28;1504;-71
2023/10/18 10:00:30;;;;;;;;;;;21.20;68.00;;;;;;5037076;28;1476;-72
2023/10/18 10:02:56;;;;;;;;;;;21.20;68.10;;;;;;5037863;28;1496;-70
2023/10/18 10:05:25;;;;;;;;;;;21.20;68.20;;;;;;5040812;28;1342;-70
2023/10/18 10:07:54;;;;;;;;;;;21.10;68.30;;;;;;5038219;28;1045;-71
2023/10/18 10:10:24;;;;;;;;;;;21.20;68.30;;;;;;5037866;28;1906;-71
2023/10/18 10:12:57;;;;;;;;;;;21.10;68.30;;;;;;5035973;28;1354;-71
2023/10/18 10:15:24;;;;;;;;;;;21.10;68.40;;;;;;5036724;28;1296;-70
2023/10/18 10:17:57;;;;;;;;;;;21.10;68.50;;;;;;5037185;28;1292;-71
2023/10/18 10:20:22;;;;;;;;;;;21.10;68.50;;;;;;5040096;28;1231;-70
2023/10/18 10:22:48;;;;;;;;;;;21.10;68.70;;;;;;5039726;28;1620;-70
2023/10/18 10:25:19;;;;;;;;;;;21.10;69.00;;;;;;5038391;28;1347;-70
2023/10/18 10:27:49;;;;;;;;;;;21.10;68.90;;;;;;5039322;28;1351;-71
2023/10/18 10:32:47;;;;;;;;;;;21.10;69.00;;;;;;5037782;28;1298;-70
2023/10/18 10:35:17;;;;;;;;;;;21.10;68.90;;;;;;5033989;28;1325;-70
2023/10/18 10:37:46;;;;;;;;;;;21.10;69.00;;;;;;5036845;28;1316;-70
2023/10/18 10:43:02;;;;;;;;;;;21.00;69.10;;;;;;5040215;28;1575;-71
2023/10/18 10:45:38;;;;;;;;;;;21.00;69.00;;;;;;5045198;28;1393;-71
2023/10/18 10:48:16;;;;;;;;;;;21.00;69.10;;;;;;5040674;28;1397;-69
2023/10/18 10:51:06;;;;;;;;;;;21.00;69.10;;;;;;5043285;28;1965;-70
2023/10/18 10:53:30;;;;;;;;;;;21.10;70.00;;;;;;5043777;28;1456;-70
2023/10/18 10:55:56;;;;;;;;;;;21.00;69.20;;;;;;5040830;28;1575;-71
2023/10/18 10:58:22;;;;;;;;;;;21.00;69.20;;;;;;5041496;28;1591;-70
2023/10/18 11:01:31;;;;;;;;;;;21.00;69.30;;;;;;5039252;28;1339;-69
2023/10/18 11:03:59;;;;;;;;;;;21.00;69.30;;;;;;5035489;28;1321;-70
2023/10/18 11:06:32;;;;;;;;;;;21.10;70.10;;;;;;5041168;28;1367;-70
2023/10/18 11:08:58;;;;;;;;;;;21.10;69.20;;;;;;5043542;28;1248;-70
2023/10/18 11:11:26;;;;;;;;;;;21.10;69.10;;;;;;5058428;28;2201;-70
2023/10/18 11:13:51;;;;;;;;;;;21.10;69.20;;;;;;5038464;28;1244;-70
2023/10/18 11:16:17;;;;;;;;;;;21.10;69.30;;;;;;5037626;28;1604;-71
2023/10/18 11:18:48;;;;;;;;;;;21.10;69.30;;;;;;5032530;28;1534;-70
2023/10/18 11:21:29;;;;;;;;;;;21.10;69.30;;;;;;5039140;28;1583;-70
2023/10/18 11:24:01;;;;;;;;;;;21.10;69.30;;;;;;5043720;28;1255;-71
2023/10/18 11:26:27;;;;;;;;;;;21.10;69.40;;;;;;5039886;28;1383;-71
2023/10/18 11:28:58;;;;;;;;;;;21.00;69.40;;;;;;5043482;28;1145;-71
2023/10/18 11:31:27;;;;;;;;;;;21.00;69.60;;;;;;5041549;28;1964;-69
2023/10/18 11:34:07;;;;;;;;;;;21.00;69.70;;;;;;5045530;28;1115;-70
2023/10/18 11:36:38;;;;;;;;;;;21.00;69.80;;;;;;5044182;28;1514;-69
2023/10/18 11:39:25;;;;;;;;;;;21.00;69.80;;;;;;5042548;28;1322;-70
2023/10/18 11:41:53;;;;;;;;;;;21.00;69.80;;;;;;5041665;28;1456;-70
2023/10/18 11:44:26;;;;;;;;;;;21.00;69.90;;;;;;5043592;28;1335;-69
2023/10/18 11:46:56;;;;;;;;;;;21.00;70.00;;;;;;5039412;28;1271;-71
2023/10/18 11:49:21;;;;;;;;;;;21.00;70.00;;;;;;5040705;28;1687;-71
2023/10/18 11:51:48;;;;;;;;;;;21.00;70.10;;;;;;5041833;28;1906;-70
2023/10/18 11:54:30;;;;;;;;;;;20.90;70.00;;;;;;5041508;28;1228;-70
2023/10/18 11:56:58;;;;;;;;;;;21.00;70.30;;;;;;5040107;28;1380;-69
2023/10/18 11:59:24;;;;;;;;;;;21.00;70.20;;;;;;5039460;28;1308;-71
2023/10/18 12:01:57;;;;;;;;;;;20.90;70.20;;;;;;5043163;28;1352;-71
2023/10/18 12:04:45;;;;;;;;;;;20.90;70.30;;;;;;5048731;28;1349;-71
2023/10/18 12:07:10;;;;;;;;;;;21.00;70.40;;;;;;5040862;28;1368;-72
2023/10/18 12:09:45;;;;;;;;;;;20.90;65.50;;;;;;5039178;28;1665;-72
2023/10/18 12:12:13;;;;;;;;;;;20.80;63.10;;;;;;5044137;28;1957;-72
2023/10/18 12:14:41;;;;;;;;;;;20.80;62.00;;;;;;5044189;28;1305;-72
2023/10/18 12:17:07;;;;;;;;;;;20.70;60.90;;;;;;5044499;28;1079;-72
2023/10/18 12:19:34;;;;;;;;;;;20.70;60.90;;;;;;5043237;28;1499;-72
2023/10/18 12:22:00;;;;;;;;;;;20.60;60.20;;;;;;5043002;28;1271;-72
2023/10/18 12:24:27;;;;;;;;;;;20.60;59.90;;;;;;5042836;28;1579;-71
2023/10/18 12:26:55;;;;;;;;;;;20.50;59.10;;;;;;5045004;28;1397;-71
2023/10/18 12:29:26;;;;;;;;;;;20.50;58.30;;;;;;5030747;28;1448;-71
2023/10/18 12:31:57;;;;;;;;;;;20.50;58.00;;;;;;5038458;28;1978;-71
2023/10/18 12:34:28;;;;;;;;;;;20.40;57.80;;;;;;5043546;28;1532;-72
2023/10/18 12:36:56;;;;;;;;;;;20.40;57.20;;;;;;5037381;28;1850;-71
2023/10/18 12:39:21;;;;;;;;;;;20.30;57.00;;;;;;5040418;28;1630;-72
2023/10/18 12:41:53;;;;;;;;;;;20.30;56.80;;;;;;5038234;28;2091;-72
2023/10/18 12:44:18;;;;;;;;;;;20.30;56.60;;;;;;5037119;28;1992;-71
2023/10/18 12:46:45;;;;;;;;;;;20.30;56.70;;;;;;5040334;28;1179;-71
2023/10/18 12:49:11;;;;;;;;;;;20.20;56.50;;;;;;5039900;28;1335;-70
2023/10/18 12:51:43;;;;;;;;;;;20.20;56.90;;;;;;5037685;28;1902;-72
2023/10/18 12:54:10;;;;;;;;;;;20.20;56.90;;;;;;5036979;28;2044;-72
2023/10/18 12:56:40;;;;;;;;;;;20.20;56.90;;;;;;5042020;28;1297;-73
2023/10/18 13:04:07;;;;;;;;;;;20.10;56.10;;;;;;5044714;28;1201;-74
2023/10/18 13:06:35;;;;;;;;;;;20.10;56.20;;;;;;5046329;28;1294;-72
2023/10/18 13:14:11;;;;;;;;;;;20.10;56.80;;;;;;5040522;28;1337;-70
2023/10/18 13:16:36;;;;;;;;;;;20.10;55.80;;;;;;5041829;28;1587;-70
2023/10/18 13:19:04;;;;;;;;;;;20.00;55.90;;;;;;5041623;28;1546;-70
2023/10/18 13:21:30;;;;;;;;;;;20.00;55.80;;;;;;5041107;28;1341;-70
2023/10/18 13:24:41;;;;;;;;;;;20.00;56.10;;;;;;5040721;28;1543;-71
2023/10/18 13:26:44;;;;;;;;;;;20.00;56.60;;;;;;5039631;28;1426;-71
2023/10/18 13:30:00;;;;;;;;;;;20.00;57.30;;;;;;5041972;28;1571;-71
2023/10/18 13:31:59;;;;;;;;;;;20.00;57.80;;;;;;5038880;28;1902;-72
2023/10/18 13:34:27;;;;;;;;;;;20.00;58.20;;;;;;5043777;28;1469;-70
2023/10/18 13:36:53;;;;;;;;;;;20.00;58.50;;;;;;5028210;28;1398;-70
2023/10/18 13:39:19;;;;;;;;;;;20.00;58.80;;;;;;5040541;28;1674;-72
2023/10/18 13:44:21;;;;;;;;;;;20.00;59.30;;;;;;6216945;22;1487;31
2023/10/18 13:46:55;;;;;;;;;;;20.00;59.50;;;;;;5001144;22;2857;-71
2023/10/18 13:49:24;;;;;;;;;;;20.00;59.80;;;;;;5001164;28;1533;-68
2023/10/18 13:51:50;;;;;;;;;;;20.00;60.00;;;;;;5007874;28;1922;-69
2023/10/18 13:54:15;;;;;;;;;;;20.00;60.20;;;;;;5007215;28;1282;-73
2023/10/18 13:56:43;;;;;;;;;;;19.90;60.50;;;;;;5010824;28;1611;-72
2023/10/18 13:59:09;;;;;;;;;;;20.00;60.70;;;;;;5010251;28;1469;-69
2023/10/18 14:01:34;;;;;;;;;;;20.00;60.90;;;;;;4993502;28;1246;-68
2023/10/18 14:04:01;;;;;;;;;;;20.00;61.10;;;;;;4995030;28;1854;-67
2023/10/18 14:06:29;;;;;;;;;;;20.00;61.30;;;;;;5000922;28;1414;-68
2023/10/18 14:08:54;;;;;;;;;;;19.90;61.50;;;;;;4994471;28;1424;-68
2023/10/18 14:11:20;;;;;;;;;;;20.00;61.70;;;;;;5012924;28;1926;-68
2023/10/18 14:19:24;;;;;;;;;;;20.00;62.20;;;;;;5069418;22;2262;-69
2023/10/18 14:21:50;;;;;;;;;;;20.00;62.30;;;;;;5037593;28;1829;-73
2023/10/18 14:24:17;;;;;;;;;;;20.00;62.40;;;;;;5039669;28;1437;-72
2023/10/18 14:26:43;;;;;;;;;;;20.00;62.50;;;;;;5037334;28;1277;-73
2023/10/18 14:29:11;;;;;;;;;;;20.00;62.70;;;;;;5040985;28;1525;-71
2023/10/18 14:31:37;;;;;;;;;;;20.00;62.90;;;;;;5055023;28;2021;-72
2023/10/18 14:34:02;;;;;;;;;;;19.90;62.90;;;;;;5058545;28;1316;-71
2023/10/18 14:36:32;;;;;;;;;;;20.00;63.10;;;;;;5058569;28;1252;-71
2023/10/18 14:38:57;;;;;;;;;;;20.00;63.20;;;;;;5057026;28;1979;-71
2023/10/18 14:41:24;;;;;;;;;;;20.00;63.30;;;;;;5060283;28;1326;-71
2023/10/18 14:43:54;;;;;;;;;;;19.90;63.30;;;;;;5059609;28;1256;-71
2023/10/18 14:46:20;;;;;;;;;;;19.90;63.40;;;;;;5055636;28;1222;-72
2023/10/18 14:48:46;;;;;;;;;;;20.00;63.60;;;;;;5058694;28;1442;-71
2023/10/18 14:51:11;;;;;;;;;;;20.00;63.80;;;;;;5047410;28;1926;-69
2023/10/18 14:53:37;;;;;;;;;;;19.90;63.70;;;;;;5059046;28;2117;-71
2023/10/18 14:56:16;;;;;;;;;;;19.90;63.80;;;;;;5059558;28;1438;-72
2023/10/18 14:58:50;;;;;;;;;;;19.90;63.90;;;;;;5057942;28;1332;-71
2023/10/18 15:01:17;;;;;;;;;;;19.90;64.00;;;;;;5065413;28;1503;-71
2023/10/18 15:03:45;;;;;;;;;;;19.90;64.10;;;;;;5060428;28;1256;-71
2023/10/18 15:06:16;;;;;;;;;;;19.90;64.20;;;;;;5054933;28;1497;-72
2023/10/18 15:08:42;;;;;;;;;;;19.90;64.30;;;;;;5054606;28;1810;-70
2023/10/18 15:11:10;;;;;;;;;;;19.90;64.30;;;;;;5055387;28;2471;-69
2023/10/18 15:13:37;;;;;;;;;;;19.90;64.40;;;;;;5057006;28;1130;-70
2023/10/18 15:16:06;;;;;;;;;;;19.90;64.40;;;;;;5055204;28;1309;-71
2023/10/18 15:18:33;;;;;;;;;;;19.90;64.50;;;;;;5056994;28;1711;-71
2023/10/18 15:20:59;;;;;;;;;;;19.90;64.60;;;;;;5056523;28;1264;-71
2023/10/18 15:23:26;;;;;;;;;;;19.90;64.60;;;;;;5057431;28;1562;-71
2023/10/18 15:25:51;;;;;;;;;;;19.90;64.60;;;;;;5063729;28;1556;-69
2023/10/18 15:28:17;;;;;;;;;;;19.90;64.70;;;;;;5063710;28;1334;-70
2023/10/18 15:30:42;;;;;;;;;;;19.90;64.80;;;;;;5062969;28;1989;-71
2023/10/18 15:33:09;;;;;;;;;;;19.90;64.90;;;;;;5062216;28;1436;-71
2023/10/18 15:35:35;;;;;;;;;;;19.90;64.90;;;;;;5062290;28;1209;-70
2023/10/18 15:38:00;;;;;;;;;;;19.90;65.00;;;;;;5061181;28;1218;-71
2023/10/18 15:40:28;;;;;;;;;;;19.90;65.00;;;;;;5062423;28;1335;-71
2023/10/18 15:42:54;;;;;;;;;;;19.90;65.20;;;;;;5059766;28;1563;-70
2023/10/18 15:45:19;;;;;;;;;;;19.90;65.20;;;;;;5060116;28;1358;-72